createdAt,value
2023-03-22T00:01:19.853Z,11.60
2023-03-22T00:03:48.135Z,11.60
2023-03-22T00:06:16.620Z,11.43
2023-03-22T00:08:44.110Z,11.73
2023-03-22T00:11:11.803Z,12.02
2023-03-22T00:13:38.665Z,10.48
2023-03-22T00:16:05.939Z,11.27
2023-03-22T00:18:32.840Z,12.48
2023-03-22T00:21:00.572Z,11.63
2023-03-22T00:23:28.872Z,11.93
2023-03-22T00:25:56.373Z,12.95
2023-03-22T00:28:23.878Z,12.90
2023-03-22T00:30:59.765Z,11.80
2023-03-22T00:33:30.759Z,12.68
2023-03-22T00:36:09.679Z,13.27
2023-03-22T00:38:44.966Z,13.65
2023-03-22T00:43:38.750Z,12.23
2023-03-22T00:46:06.709Z,11.73
2023-03-22T00:48:33.412Z,11.88
2023-03-22T00:51:00.176Z,12.77
2023-03-22T00:53:29.103Z,12.63
2023-03-22T00:55:59.542Z,12.70
2023-03-22T00:58:28.337Z,13.38
2023-03-22T01:00:55.022Z,12.32
2023-03-22T01:03:22.137Z,11.98
2023-03-22T01:05:49.474Z,12.27
2023-03-22T01:08:16.700Z,14.32
2023-03-22T01:10:44.599Z,12.52
2023-03-22T01:13:12.681Z,13.27
2023-03-22T01:15:39.426Z,13.27
2023-03-22T01:18:07.607Z,14.15
2023-03-22T01:20:34.877Z,13.60
2023-03-22T01:23:01.612Z,12.88
2023-03-22T01:25:28.866Z,13.45
2023-03-22T01:27:55.569Z,13.48
2023-03-22T01:30:22.267Z,14.07
2023-03-22T01:32:49.012Z,13.95
2023-03-22T01:35:17.223Z,13.82
2023-03-22T01:37:43.981Z,13.32
2023-03-22T01:40:13.509Z,13.35
2023-03-22T01:42:40.875Z,13.77
2023-03-22T01:45:16.801Z,12.60
2023-03-22T01:47:47.059Z,12.80
2023-03-22T01:50:16.602Z,13.80
2023-03-22T01:52:45.483Z,13.07
2023-03-22T01:55:22.862Z,13.18
2023-03-22T01:57:56.686Z,13.18
2023-03-22T02:00:37.295Z,13.85
2023-03-22T02:03:38.424Z,12.40
2023-03-22T02:06:06.245Z,14.95
2023-03-22T02:08:34.005Z,14.25
2023-03-22T02:11:07.288Z,14.38
2023-03-22T02:13:56.117Z,13.90
2023-03-22T02:16:44.193Z,12.90
2023-03-22T02:19:30.651Z,13.40
2023-03-22T02:22:16.280Z,12.77
2023-03-22T02:25:04.276Z,13.65
2023-03-22T02:27:52.633Z,13.27
2023-03-22T02:30:34.170Z,12.68
2023-03-22T02:33:19.357Z,13.30
2023-03-22T02:36:03.998Z,13.68
2023-03-22T02:38:52.612Z,13.90
2023-03-22T02:41:55.369Z,12.55
2023-03-22T02:44:55.842Z,13.77
2023-03-22T02:47:30.241Z,14.23
2023-03-22T02:50:09.114Z,14.05
2023-03-22T02:52:39.385Z,13.43
2023-03-22T02:55:08.797Z,14.02
2023-03-22T02:57:40.586Z,13.80
2023-03-22T03:00:13.132Z,14.48
2023-03-22T03:02:46.913Z,14.90
2023-03-22T03:05:16.496Z,13.85
2023-03-22T03:07:51.221Z,13.52
2023-03-22T03:10:21.123Z,13.48
2023-03-22T03:12:48.047Z,12.48
2023-03-22T03:15:20.561Z,13.48
2023-03-22T03:18:32.455Z,13.45
2023-03-22T03:21:17.111Z,13.65
2023-03-22T03:24:04.059Z,12.27
2023-03-22T03:27:04.061Z,13.93
2023-03-22T03:29:52.973Z,13.82
2023-03-22T03:32:27.965Z,14.45
2023-03-22T03:35:05.477Z,15.15
2023-03-22T03:37:47.830Z,14.98
2023-03-22T03:40:31.176Z,14.60
2023-03-22T03:43:02.393Z,14.95
2023-03-22T03:45:31.069Z,14.93
2023-03-22T03:48:01.030Z,16.80
2023-03-22T03:50:28.210Z,14.68
2023-03-22T03:52:56.418Z,16.15
2023-03-22T03:55:24.375Z,14.52
2023-03-22T03:57:51.110Z,15.05
2023-03-22T04:00:18.853Z,15.77
2023-03-22T04:03:08.595Z,15.30
2023-03-22T04:05:50.279Z,14.90
2023-03-22T04:08:17.092Z,14.93
2023-03-22T04:10:48.584Z,14.52
2023-03-22T04:13:15.286Z,14.77
2023-03-22T04:15:43.092Z,15.38
2023-03-22T04:18:13.854Z,15.23
2023-03-22T04:20:41.796Z,13.93
2023-03-22T04:23:11.671Z,14.80
2023-03-22T04:25:39.058Z,14.48
2023-03-22T04:28:09.967Z,14.65
2023-03-22T04:30:37.620Z,14.20
2023-03-22T04:33:22.807Z,15.35
2023-03-22T04:36:10.997Z,13.35
2023-03-22T04:38:52.004Z,14.57
2023-03-22T04:41:22.942Z,14.25
2023-03-22T04:43:52.179Z,13.43
2023-03-22T04:46:21.264Z,14.00
2023-03-22T04:48:54.729Z,13.88
2023-03-22T04:51:22.081Z,15.05
2023-03-22T04:54:03.414Z,14.23
2023-03-22T04:56:30.241Z,14.13
2023-03-22T04:58:57.134Z,13.68
2023-03-22T05:01:24.053Z,15.25
2023-03-22T05:03:59.836Z,13.73
2023-03-22T05:06:27.959Z,14.20
2023-03-22T05:09:08.815Z,15.13
2023-03-22T05:11:36.295Z,13.98
2023-03-22T05:14:17.972Z,13.10
2023-03-22T05:16:46.336Z,14.80
2023-03-22T05:19:16.010Z,13.95
2023-03-22T05:21:47.754Z,14.25
2023-03-22T05:24:15.336Z,14.18
2023-03-22T05:26:45.930Z,15.27
2023-03-22T05:29:12.864Z,13.90
2023-03-22T05:31:57.954Z,14.43
2023-03-22T05:34:24.888Z,14.20
2023-03-22T05:36:51.647Z,14.88
2023-03-22T05:39:30.737Z,14.23
2023-03-22T05:41:58.526Z,14.48
2023-03-22T05:44:25.443Z,14.13
2023-03-22T05:47:07.522Z,15.23
2023-03-22T05:49:54.513Z,13.82
2023-03-22T05:52:23.313Z,14.77
2023-03-22T05:55:01.940Z,14.38
2023-03-22T05:57:30.130Z,15.05
2023-03-22T05:59:58.260Z,14.27
2023-03-22T06:02:28.925Z,15.02
2023-03-22T06:04:55.660Z,14.68
2023-03-22T06:07:23.733Z,14.50
2023-03-22T06:09:53.635Z,13.60
2023-03-22T06:12:26.813Z,14.40
2023-03-22T06:15:13.424Z,14.18
2023-03-22T06:17:50.096Z,13.70
2023-03-22T06:20:21.623Z,14.90
2023-03-22T06:22:54.292Z,15.30
2023-03-22T06:25:20.978Z,16.13
2023-03-22T06:27:50.551Z,14.32
2023-03-22T06:30:19.196Z,16.10
2023-03-22T06:33:06.047Z,15.40
2023-03-22T06:35:36.606Z,16.15
2023-03-22T06:38:04.622Z,15.32
2023-03-22T06:40:32.334Z,16.70
2023-03-22T06:43:01.637Z,16.92
2023-03-22T06:45:33.412Z,16.33
2023-03-22T06:48:01.965Z,17.85
2023-03-22T06:50:39.683Z,16.88
2023-03-22T06:53:17.726Z,17.50
2023-03-22T06:55:44.485Z,18.10
2023-03-22T06:58:17.882Z,16.65
2023-03-22T07:00:44.976Z,17.27
2023-03-22T07:03:13.465Z,18.25
2023-03-22T07:05:46.502Z,18.45
2023-03-22T07:08:13.226Z,19.10
2023-03-22T07:10:51.492Z,18.88
2023-03-22T07:13:20.851Z,17.67
2023-03-22T07:15:49.482Z,19.70
2023-03-22T07:18:38.964Z,19.00
2023-03-22T07:21:06.139Z,18.50
2023-03-22T07:23:34.610Z,18.60
2023-03-22T07:26:07.220Z,17.90
2023-03-22T07:28:36.274Z,18.48
2023-03-22T07:31:07.725Z,18.92
2023-03-22T07:33:44.878Z,18.13
2023-03-22T07:36:12.084Z,18.52
2023-03-22T07:38:38.885Z,18.73
2023-03-22T07:41:10.566Z,18.77
2023-03-22T07:44:00.213Z,18.40
2023-03-22T07:46:39.448Z,20.40
2023-03-22T07:49:17.435Z,19.05
2023-03-22T07:52:02.891Z,16.98
2023-03-22T07:54:33.901Z,19.20
2023-03-22T07:57:03.069Z,20.42
2023-03-22T07:59:31.383Z,18.92
2023-03-22T08:02:00.468Z,21.50
2023-03-22T08:04:34.264Z,18.77
2023-03-22T08:07:11.536Z,18.52
2023-03-22T08:09:38.464Z,19.13
2023-03-22T08:12:06.189Z,17.73
2023-03-22T08:14:37.095Z,19.50
2023-03-22T08:17:08.976Z,17.70
2023-03-22T08:19:36.178Z,18.75
2023-03-22T08:22:03.684Z,17.08
2023-03-22T08:24:53.277Z,18.55
2023-03-22T08:27:26.348Z,19.55
2023-03-22T08:29:54.202Z,18.35
2023-03-22T08:32:21.688Z,19.73
2023-03-22T08:34:48.297Z,18.52
2023-03-22T08:37:14.972Z,18.42
2023-03-22T08:39:44.172Z,19.60
2023-03-22T08:42:34.091Z,20.50
2023-03-22T08:45:02.399Z,18.60
2023-03-22T08:47:29.928Z,20.00
2023-03-22T08:50:01.160Z,18.83
2023-03-22T08:52:39.316Z,18.40
2023-03-22T08:55:10.979Z,19.13
2023-03-22T08:57:59.011Z,16.67
2023-03-22T09:00:47.790Z,16.45
2023-03-22T09:03:44.487Z,16.67
2023-03-22T09:06:11.648Z,16.58
2023-03-22T09:08:42.015Z,16.27
2023-03-22T09:11:13.239Z,16.02
2023-03-22T09:13:42.002Z,16.17
2023-03-22T09:16:09.442Z,17.63
2023-03-22T09:18:38.043Z,17.08
2023-03-22T09:21:11.426Z,14.98
2023-03-22T09:24:01.233Z,14.30
2023-03-22T09:26:38.347Z,16.00
2023-03-22T09:29:06.066Z,15.07
2023-03-22T09:31:33.711Z,14.63
2023-03-22T09:34:10.687Z,14.70
2023-03-22T09:36:38.005Z,14.65
2023-03-22T09:39:06.998Z,15.60
2023-03-22T09:41:48.698Z,14.95
2023-03-22T09:44:22.372Z,14.73
2023-03-22T09:46:53.873Z,16.52
2023-03-22T09:49:26.919Z,15.32
2023-03-22T09:51:54.987Z,17.40
2023-03-22T09:54:27.681Z,18.42
2023-03-22T09:57:04.743Z,17.08
2023-03-22T10:00:12.516Z,16.25
2023-03-22T10:03:15.344Z,15.55
2023-03-22T10:05:45.722Z,17.35
2023-03-22T10:08:18.503Z,17.92
2023-03-22T10:10:45.479Z,20.40
2023-03-22T10:13:29.921Z,20.88
2023-03-22T10:16:00.323Z,19.63
2023-03-22T10:18:35.241Z,22.10
2023-03-22T10:21:08.888Z,23.15
2023-03-22T10:23:39.540Z,21.70
2023-03-22T10:26:07.886Z,22.95
2023-03-22T10:28:34.447Z,23.50
2023-03-22T10:31:02.298Z,21.83
2023-03-22T10:34:02.371Z,22.20
2023-03-22T10:36:34.802Z,22.13
2023-03-22T10:39:10.298Z,21.90
2023-03-22T10:44:06.484Z,24.98
2023-03-22T10:46:38.998Z,24.40
2023-03-22T10:49:07.934Z,26.08
2023-03-22T10:51:40.839Z,26.33
2023-03-22T10:54:13.386Z,25.15
2023-03-22T10:56:40.107Z,24.48
2023-03-22T10:59:06.755Z,23.67
2023-03-22T11:01:37.723Z,24.83
2023-03-22T11:04:04.402Z,23.08
2023-03-22T11:06:36.990Z,22.33
2023-03-22T11:09:21.645Z,21.77
2023-03-22T11:11:53.491Z,22.38
2023-03-22T11:14:43.596Z,23.30
2023-03-22T11:17:14.904Z,23.48
2023-03-22T11:19:52.740Z,24.83
2023-03-22T11:22:42.460Z,23.95
2023-03-22T11:25:27.829Z,22.15
2023-03-22T11:27:57.760Z,23.40
2023-03-22T11:30:28.947Z,21.20
2023-03-22T11:33:19.702Z,22.95
2023-03-22T11:35:53.264Z,22.83
2023-03-22T11:38:29.609Z,21.83
2023-03-22T11:41:03.046Z,21.13
2023-03-22T11:43:40.187Z,21.98
2023-03-22T11:46:08.971Z,22.25
2023-03-22T11:48:36.441Z,20.60
2023-03-22T11:51:15.940Z,21.73
2023-03-22T11:53:48.670Z,20.85
2023-03-22T11:56:30.432Z,20.58
2023-03-22T11:59:09.111Z,20.33
2023-03-22T12:01:44.612Z,18.95
2023-03-22T12:04:15.262Z,20.83
2023-03-22T12:06:43.152Z,19.38
2023-03-22T12:09:50.062Z,19.73
2023-03-22T12:12:23.037Z,22.73
2023-03-22T12:15:11.079Z,20.42
2023-03-22T12:18:02.010Z,20.90
2023-03-22T12:20:53.414Z,19.85
2023-03-22T12:23:23.603Z,20.05
2023-03-22T12:25:56.474Z,18.33
2023-03-22T12:28:29.841Z,18.25
2023-03-22T12:30:58.512Z,17.58
2023-03-22T12:33:43.844Z,17.48
2023-03-22T12:36:16.915Z,17.48
2023-03-22T12:38:52.801Z,17.52
2023-03-22T12:41:26.382Z,16.67
2023-03-22T12:43:56.704Z,17.08
2023-03-22T12:46:46.468Z,18.10
2023-03-22T12:49:35.318Z,15.32
2023-03-22T12:52:19.541Z,15.05
2023-03-22T12:54:47.682Z,15.63
2023-03-22T12:57:16.301Z,15.20
2023-03-22T12:59:46.159Z,16.17
2023-03-22T13:02:12.697Z,15.43
2023-03-22T13:04:40.925Z,16.60
2023-03-22T13:07:31.851Z,15.73
2023-03-22T13:10:21.455Z,15.27
2023-03-22T13:13:09.776Z,14.68
2023-03-22T13:15:42.135Z,16.83
2023-03-22T13:18:32.570Z,16.80
2023-03-22T13:21:20.244Z,15.32
2023-03-22T13:24:06.453Z,16.08
2023-03-22T13:26:45.643Z,15.73
2023-03-22T13:29:49.844Z,16.88
2023-03-22T13:32:30.532Z,17.13
2023-03-22T13:34:57.448Z,15.80
2023-03-22T13:37:35.025Z,14.57
2023-03-22T13:40:13.393Z,14.32
2023-03-22T13:42:41.582Z,14.35
2023-03-22T13:45:27.443Z,14.15
2023-03-22T13:48:06.075Z,14.63
2023-03-22T13:50:34.642Z,16.90
2023-03-22T13:53:15.533Z,15.25
2023-03-22T13:55:54.270Z,14.52
2023-03-22T13:58:45.530Z,14.45
2023-03-22T14:01:27.952Z,14.50
2023-03-22T14:03:58.596Z,14.52
2023-03-22T14:06:28.942Z,14.85
2023-03-22T14:09:02.518Z,15.02
2023-03-22T14:11:38.982Z,14.52
2023-03-22T14:14:13.216Z,13.85
2023-03-22T14:16:48.747Z,17.42
